Time;durP1;ratioP1;P1;durP2;ratioP2;P2;SDS_P1;SDS_P2;PMS_P1;PMS_P2;Temp;Humidity;BMP_temperature;BMP_pressure;BME280_temperature;BME280_humidity;BME280_pressure;Samples;Min_cycle;Max_cycle;Signal;HPM_P1;HPM_P2
2024/01/16 00:00:40;;;;;;;16.77;13.90;;;;;;;;;;5099419;28;20040;-76
2024/01/16 00:03:06;;;;;;;11.13;9.63;;;;;;;;;;5097291;28;20111;-75
2024/01/16 00:05:33;;;;;;;17.80;15.30;;;;;;;;;;5079968;28;20130;-75
2024/01/16 00:08:00;;;;;;;16.27;13.73;;;;;;;;;;5095329;28;20494;-75
2024/01/16 00:10:26;;;;;;;11.95;10.23;;;;;;;;;;5098758;28;20044;-75
2024/01/16 00:12:52;;;;;;;13.93;11.48;;;;;;;;;;5106164;28;20099;-74
2024/01/16 00:15:19;;;;;;;12.45;10.45;;;;;;;;;;5108383;28;20066;-74
2024/01/16 00:17:45;;;;;;;10.27;9.13;;;;;;;;;;5107693;28;20450;-74
2024/01/16 00:20:12;;;;;;;18.77;13.88;;;;;;;;;;5107766;28;20031;-74
2024/01/16 00:22:38;;;;;;;14.10;12.70;;;;;;;;;;5098280;28;20054;-74
2024/01/16 00:25:06;;;;;;;13.05;11.05;;;;;;;;;;5110021;28;20032;-75
2024/01/16 00:27:33;;;;;;;11.38;10.10;;;;;;;;;;5110535;28;20043;-73
2024/01/16 00:29:59;;;;;;;12.82;11.10;;;;;;;;;;5110581;28;20035;-76
2024/01/16 00:32:26;;;;;;;12.93;11.63;;;;;;;;;;5101337;28;20522;-74
2024/01/16 00:34:52;;;;;;;12.73;11.45;;;;;;;;;;5111452;28;21731;-74
2024/01/16 00:37:17;;;;;;;15.52;12.02;;;;;;;;;;5102884;28;20110;-74
2024/01/16 00:39:44;;;;;;;12.48;10.35;;;;;;;;;;5103270;28;20127;-74
2024/01/16 00:42:10;;;;;;;11.20;9.57;;;;;;;;;;5110712;28;20029;-74
2024/01/16 00:44:36;;;;;;;12.88;11.50;;;;;;;;;;5099628;28;20460;-74
2024/01/16 00:47:02;;;;;;;13.95;10.45;;;;;;;;;;5110475;28;20024;-75
2024/01/16 00:49:28;;;;;;;13.30;11.38;;;;;;;;;;5109950;27;20092;-76
2024/01/16 00:51:54;;;;;;;9.55;8.63;;;;;;;;;;5109809;28;20081;-75
2024/01/16 00:54:20;;;;;;;16.02;12.80;;;;;;;;;;5116558;27;20061;-76
2024/01/16 00:56:46;;;;;;;11.73;9.77;;;;;;;;;;5099245;28;20035;-74
2024/01/16 00:59:12;;;;;;;11.48;10.18;;;;;;;;;;5110739;28;20031;-75
2024/01/16 01:01:38;;;;;;;13.30;11.70;;;;;;;;;;5099033;28;20039;-74
2024/01/16 01:04:04;;;;;;;10.77;9.68;;;;;;;;;;5109728;28;20120;-75
2024/01/16 01:06:30;;;;;;;10.77;9.80;;;;;;;;;;5111558;28;20035;-75
2024/01/16 01:08:56;;;;;;;18.13;15.25;;;;;;;;;;5104666;28;20038;-75
2024/01/16 01:11:22;;;;;;;12.82;11.48;;;;;;;;;;5097247;28;20024;-74
2024/01/16 01:13:47;;;;;;;13.40;10.73;;;;;;;;;;5096933;28;20038;-74
2024/01/16 01:16:13;;;;;;;11.50;9.13;;;;;;;;;;5109472;28;20032;-75
2024/01/16 01:18:39;;;;;;;13.77;11.70;;;;;;;;;;5119780;27;20452;-75
2024/01/16 01:21:05;;;;;;;10.63;9.45;;;;;;;;;;5099612;28;20027;-74
2024/01/16 01:23:32;;;;;;;11.38;9.85;;;;;;;;;;5099613;28;20259;-74
2024/01/16 01:25:58;;;;;;;15.10;13.57;;;;;;;;;;5104658;28;20114;-75
2024/01/16 01:28:24;;;;;;;10.50;9.43;;;;;;;;;;5099065;28;20020;-74
2024/01/16 01:30:50;;;;;;;13.32;11.18;;;;;;;;;;5109661;28;20036;-73
2024/01/16 01:33:17;;;;;;;13.30;11.90;;;;;;;;;;5109034;28;20086;-74
2024/01/16 01:35:42;;;;;;;12.73;10.57;;;;;;;;;;5100568;28;20047;-75
2024/01/16 01:38:08;;;;;;;10.50;9.52;;;;;;;;;;5119237;28;20032;-74
2024/01/16 01:40:34;;;;;;;12.60;11.25;;;;;;;;;;5118553;28;20027;-74
2024/01/16 01:43:19;;;;;;;12.23;11.02;;;;;;;;;;5091917;28;20028;-75
2024/01/16 01:45:55;;;;;;;12.90;11.57;;;;;;;;;;5121885;28;20051;-76
2024/01/16 01:48:22;;;;;;;10.75;9.75;;;;;;;;;;5112144;28;20042;-75
2024/01/16 01:50:48;;;;;;;12.98;11.77;;;;;;;;;;5102445;28;20046;-76
2024/01/16 01:53:14;;;;;;;12.38;11.15;;;;;;;;;;5099588;28;20499;-75
2024/01/16 01:55:41;;;;;;;9.30;8.00;;;;;;;;;;5110018;28;20117;-75
2024/01/16 01:58:07;;;;;;;10.57;9.55;;;;;;;;;;5078882;28;20122;-75
2024/01/16 02:00:33;;;;;;;11.75;9.75;;;;;;;;;;5109117;28;20172;-74
2024/01/16 02:03:00;;;;;;;16.30;11.93;;;;;;;;;;5110186;28;20114;-75
2024/01/16 02:05:26;;;;;;;12.23;11.13;;;;;;;;;;5116894;28;20090;-75
2024/01/16 02:07:52;;;;;;;13.07;10.35;;;;;;;;;;5093088;28;20035;-74
2024/01/16 02:10:17;;;;;;;11.82;9.63;;;;;;;;;;5110602;28;20081;-74
2024/01/16 02:12:44;;;;;;;12.25;11.05;;;;;;;;;;5108963;28;20495;-75
2024/01/16 02:15:10;;;;;;;12.23;9.93;;;;;;;;;;5108740;28;20045;-74
2024/01/16 02:17:36;;;;;;;12.35;11.05;;;;;;;;;;5118626;27;20054;-73
2024/01/16 02:20:22;;;;;;;10.75;9.65;;;;;;;;;;5087629;28;20044;-75
2024/01/16 02:22:48;;;;;;;14.13;12.63;;;;;;;;;;5108401;28;20122;-74
2024/01/16 02:25:14;;;;;;;9.57;8.63;;;;;;;;;;5097570;28;20118;-74
2024/01/16 02:27:40;;;;;;;11.52;10.32;;;;;;;;;;5096238;28;20568;-75
2024/01/16 02:30:06;;;;;;;10.50;9.50;;;;;;;;;;5108085;27;20114;-75
2024/01/16 02:32:32;;;;;;;10.68;8.93;;;;;;;;;;5108134;28;20122;-74
2024/01/16 02:34:58;;;;;;;12.20;11.05;;;;;;;;;;5114610;27;20407;-75
2024/01/16 02:37:25;;;;;;;8.43;7.22;;;;;;;;;;5104326;28;20541;-75
2024/01/16 02:39:51;;;;;;;12.95;9.73;;;;;;;;;;5095416;28;20040;-73
2024/01/16 02:42:17;;;;;;;9.88;8.95;;;;;;;;;;5098586;28;20027;-74
2024/01/16 02:44:43;;;;;;;10.30;9.25;;;;;;;;;;5095887;28;20147;-74
2024/01/16 02:47:09;;;;;;;13.10;11.70;;;;;;;;;;5098633;28;20092;-74
2024/01/16 02:49:36;;;;;;;12.25;11.07;;;;;;;;;;5098873;28;20138;-74
2024/01/16 02:52:03;;;;;;;12.25;10.98;;;;;;;;;;5084672;28;20023;-75
2024/01/16 02:54:29;;;;;;;10.98;9.88;;;;;;;;;;5105851;28;20040;-75
2024/01/16 02:56:55;;;;;;;11.27;9.25;;;;;;;;;;5109714;28;20035;-74
2024/01/16 02:59:21;;;;;;;11.40;10.38;;;;;;;;;;5099541;28;20118;-74
2024/01/16 03:01:47;;;;;;;11.48;10.32;;;;;;;;;;5078629;28;20115;-74
2024/01/16 03:04:14;;;;;;;14.25;12.95;;;;;;;;;;5108874;28;20031;-75
2024/01/16 03:06:40;;;;;;;12.88;11.07;;;;;;;;;;5108199;28;20039;-75
2024/01/16 03:09:06;;;;;;;11.52;9.50;;;;;;;;;;5094921;28;20399;-75
2024/01/16 03:11:33;;;;;;;12.98;11.63;;;;;;;;;;5109572;27;20141;-76
2024/01/16 03:13:59;;;;;;;11.20;9.75;;;;;;;;;;5107534;28;20031;-75
2024/01/16 03:16:25;;;;;;;18.20;13.15;;;;;;;;;;5108739;28;20043;-75
2024/01/16 03:18:51;;;;;;;15.02;12.75;;;;;;;;;;5095138;28;20031;-75
2024/01/16 03:21:17;;;;;;;13.65;12.13;;;;;;;;;;5099872;28;20042;-74
2024/01/16 03:23:44;;;;;;;12.20;8.82;;;;;;;;;;5086391;28;20042;-75
2024/01/16 03:26:13;;;;;;;14.25;11.77;;;;;;;;;;5114797;27;20035;-76
2024/01/16 03:28:40;;;;;;;11.30;10.00;;;;;;;;;;5107167;28;20476;-74
2024/01/16 03:31:06;;;;;;;16.48;14.70;;;;;;;;;;5103762;28;20031;-75
2024/01/16 03:33:32;;;;;;;16.17;12.10;;;;;;;;;;5099394;28;20113;-74
2024/01/16 03:35:57;;;;;;;9.80;8.57;;;;;;;;;;5094476;28;20528;-74
2024/01/16 03:38:23;;;;;;;13.05;11.68;;;;;;;;;;5098088;28;20107;-74
2024/01/16 03:40:49;;;;;;;13.23;11.30;;;;;;;;;;5100913;28;20038;-74
2024/01/16 03:43:15;;;;;;;12.85;11.20;;;;;;;;;;5105564;28;20035;-74
2024/01/16 03:45:41;;;;;;;15.13;13.15;;;;;;;;;;5109326;28;20054;-76
2024/01/16 03:48:07;;;;;;;12.65;11.32;;;;;;;;;;5107922;28;20131;-77
2024/01/16 03:50:34;;;;;;;17.13;12.25;;;;;;;;;;5098682;28;20036;-77
2024/01/16 03:53:00;;;;;;;12.65;10.50;;;;;;;;;;5108968;28;20243;-78
2024/01/16 03:55:25;;;;;;;14.18;12.73;;;;;;;;;;5117771;28;20437;-77
2024/01/16 03:57:52;;;;;;;15.55;12.80;;;;;;;;;;5125120;27;20068;-77
2024/01/16 04:00:18;;;;;;;12.02;9.93;;;;;;;;;;5113250;28;20023;-78
2024/01/16 04:02:44;;;;;;;15.48;12.35;;;;;;;;;;5104557;28;20042;-77
2024/01/16 04:05:10;;;;;;;14.73;11.27;;;;;;;;;;5083514;28;20568;-78
2024/01/16 04:07:36;;;;;;;15.90;12.90;;;;;;;;;;5097003;28;20050;-77
2024/01/16 04:10:05;;;;;;;14.68;11.82;;;;;;;;;;5092147;28;20040;-77
2024/01/16 04:12:30;;;;;;;17.40;15.10;;;;;;;;;;5100981;28;20088;-77
2024/01/16 04:14:56;;;;;;;15.40;13.80;;;;;;;;;;5097678;28;20039;-77
2024/01/16 04:17:22;;;;;;;15.07;11.25;;;;;;;;;;5117938;28;20453;-77
2024/01/16 04:19:48;;;;;;;17.08;11.85;;;;;;;;;;5121667;27;20036;-77
2024/01/16 04:22:14;;;;;;;12.95;10.13;;;;;;;;;;5098066;28;20499;-75
2024/01/16 04:24:40;;;;;;;12.13;9.95;;;;;;;;;;5105765;28;20043;-78
2024/01/16 04:27:06;;;;;;;12.68;10.45;;;;;;;;;;5113398;27;20500;-80
2024/01/16 04:29:31;;;;;;;14.40;11.15;;;;;;;;;;5107557;27;20578;-79
2024/01/16 04:31:58;;;;;;;16.90;13.73;;;;;;;;;;5119846;28;20624;-80
2024/01/16 04:34:23;;;;;;;12.50;10.07;;;;;;;;;;5120816;28;20707;-79
2024/01/16 04:36:49;;;;;;;19.45;15.82;;;;;;;;;;5102351;28;20032;-78
2024/01/16 04:39:15;;;;;;;14.00;11.85;;;;;;;;;;5100893;28;20612;-78
2024/01/16 04:41:41;;;;;;;15.27;12.90;;;;;;;;;;5122763;28;20407;-79
2024/01/16 04:44:07;;;;;;;12.90;10.50;;;;;;;;;;5102930;28;20055;-79
2024/01/16 04:46:32;;;;;;;17.20;11.63;;;;;;;;;;5117927;27;20063;-78
2024/01/16 04:48:58;;;;;;;14.63;11.85;;;;;;;;;;5072153;28;20031;-76
2024/01/16 04:51:24;;;;;;;14.60;10.48;;;;;;;;;;5091423;28;20050;-79
2024/01/16 04:53:50;;;;;;;18.50;13.55;;;;;;;;;;5123620;28;20024;-78
2024/01/16 04:56:16;;;;;;;19.08;13.90;;;;;;;;;;5082155;28;20031;-79
2024/01/16 04:58:42;;;;;;;15.70;11.32;;;;;;;;;;5096342;28;20038;-77
2024/01/16 05:01:08;;;;;;;13.75;11.65;;;;;;;;;;5095284;28;20084;-79
2024/01/16 05:03:33;;;;;;;17.63;13.35;;;;;;;;;;5064511;28;20474;-78
2024/01/16 05:05:59;;;;;;;17.77;13.68;;;;;;;;;;5113144;27;20063;-78
2024/01/16 05:08:25;;;;;;;18.63;13.70;;;;;;;;;;5094929;28;20035;-77
2024/01/16 05:10:51;;;;;;;15.32;13.05;;;;;;;;;;5114621;28;20039;-75
2024/01/16 05:13:17;;;;;;;19.35;14.55;;;;;;;;;;5094784;28;20038;-76
2024/01/16 05:15:42;;;;;;;13.68;11.77;;;;;;;;;;5112311;28;20047;-77
2024/01/16 05:18:09;;;;;;;22.83;15.27;;;;;;;;;;5093096;28;20032;-76
2024/01/16 05:20:35;;;;;;;17.55;13.88;;;;;;;;;;5076344;28;20036;-77
2024/01/16 05:23:02;;;;;;;18.83;12.02;;;;;;;;;;5091810;28;20092;-78
2024/01/16 05:25:27;;;;;;;23.48;16.25;;;;;;;;;;5095767;27;20051;-75
2024/01/16 05:27:53;;;;;;;19.98;13.77;;;;;;;;;;5120283;27;20035;-77
2024/01/16 05:30:19;;;;;;;16.10;10.98;;;;;;;;;;5095338;27;20032;-76
2024/01/16 05:32:45;;;;;;;19.27;11.65;;;;;;;;;;5114283;27;20041;-77
2024/01/16 05:35:11;;;;;;;23.70;17.98;;;;;;;;;;5117454;27;20035;-76
2024/01/16 05:37:36;;;;;;;16.05;12.98;;;;;;;;;;5115421;27;20032;-76
2024/01/16 05:40:03;;;;;;;19.48;14.02;;;;;;;;;;5110197;28;20507;-76
2024/01/16 05:42:30;;;;;;;23.88;15.38;;;;;;;;;;5108930;28;20096;-76
2024/01/16 05:44:56;;;;;;;20.55;15.70;;;;;;;;;;5080662;28;20056;-77
2024/01/16 05:47:24;;;;;;;17.42;14.73;;;;;;;;;;5091724;28;20407;-76
2024/01/16 05:49:50;;;;;;;17.83;12.68;;;;;;;;;;5095328;28;20031;-76
2024/01/16 05:52:17;;;;;;;16.45;12.15;;;;;;;;;;5113538;28;20146;-75
2024/01/16 05:54:42;;;;;;;15.88;10.85;;;;;;;;;;5111133;28;20560;-76
2024/01/16 05:57:08;;;;;;;15.50;11.63;;;;;;;;;;5110996;28;20063;-77
2024/01/16 05:59:34;;;;;;;17.77;13.50;;;;;;;;;;5092118;28;20415;-75
2024/01/16 06:02:00;;;;;;;19.38;13.35;;;;;;;;;;5109005;28;20050;-76
2024/01/16 06:04:26;;;;;;;16.67;13.43;;;;;;;;;;5073872;28;20043;-76
2024/01/16 06:06:52;;;;;;;16.08;9.88;;;;;;;;;;5091297;28;20039;-77
2024/01/16 06:09:18;;;;;;;15.57;10.90;;;;;;;;;;5115578;28;20040;-78
2024/01/16 06:11:44;;;;;;;15.70;10.13;;;;;;;;;;5117779;27;20096;-80
2024/01/16 06:14:11;;;;;;;11.35;10.20;;;;;;;;;;5120390;27;20035;-79
2024/01/16 06:16:37;;;;;;;11.93;8.70;;;;;;;;;;5101308;28;20103;-78
2024/01/16 06:19:04;;;;;;;11.27;9.38;;;;;;;;;;5119227;28;20063;-78
2024/01/16 06:21:30;;;;;;;20.13;13.77;;;;;;;;;;5101014;28;20042;-78
2024/01/16 06:23:56;;;;;;;17.92;11.90;;;;;;;;;;5114818;28;20032;-77
2024/01/16 06:26:33;;;;;;;15.38;12.20;;;;;;;;;;5079439;28;20059;-78
2024/01/16 06:28:59;;;;;;;14.38;10.27;;;;;;;;;;5078646;28;20036;-77
2024/01/16 06:31:26;;;;;;;16.10;11.73;;;;;;;;;;5113424;28;20047;-77
2024/01/16 06:33:51;;;;;;;12.50;9.90;;;;;;;;;;5111604;28;20031;-78
2024/01/16 06:36:17;;;;;;;19.10;12.80;;;;;;;;;;5112815;28;20031;-76
2024/01/16 06:39:03;;;;;;;14.57;11.90;;;;;;;;;;5117795;28;20567;-78
2024/01/16 06:41:29;;;;;;;18.80;13.32;;;;;;;;;;5113793;28;20031;-78
2024/01/16 06:43:55;;;;;;;11.50;9.63;;;;;;;;;;5114237;28;20108;-77
2024/01/16 06:46:21;;;;;;;17.63;10.73;;;;;;;;;;5114947;28;20054;-77
2024/01/16 06:48:48;;;;;;;21.55;13.75;;;;;;;;;;5113755;28;20047;-79
2024/01/16 06:51:15;;;;;;;13.30;10.35;;;;;;;;;;5120947;28;20039;-78
2024/01/16 06:53:41;;;;;;;12.95;9.73;;;;;;;;;;5125367;28;20035;-79
2024/01/16 06:56:08;;;;;;;15.02;10.30;;;;;;;;;;5090514;28;20032;-78
2024/01/16 06:58:35;;;;;;;12.50;10.43;;;;;;;;;;5059833;28;20138;-78
2024/01/16 07:01:03;;;;;;;19.73;13.75;;;;;;;;;;5107165;27;20631;-78
2024/01/16 07:03:30;;;;;;;15.43;10.90;;;;;;;;;;5129226;27;20023;-79
2024/01/16 07:05:56;;;;;;;16.33;12.13;;;;;;;;;;5100039;27;20039;-77
2024/01/16 07:08:22;;;;;;;13.15;10.13;;;;;;;;;;5110454;27;20041;-76
2024/01/16 07:10:48;;;;;;;19.00;12.95;;;;;;;;;;5078204;28;20084;-76
2024/01/16 07:13:14;;;;;;;15.80;13.57;;;;;;;;;;5092524;28;20100;-75
2024/01/16 07:15:40;;;;;;;18.10;11.13;;;;;;;;;;5108962;28;20027;-77
2024/01/16 07:18:06;;;;;;;11.95;8.93;;;;;;;;;;5091088;28;20151;-76
2024/01/16 07:20:32;;;;;;;20.50;13.35;;;;;;;;;;5090079;28;20050;-76
2024/01/16 07:22:58;;;;;;;20.60;12.85;;;;;;;;;;5091127;28;20088;-76
2024/01/16 07:25:24;;;;;;;19.08;13.02;;;;;;;;;;5079683;27;20516;-76
2024/01/16 07:27:50;;;;;;;18.67;11.30;;;;;;;;;;5094041;27;20036;-78
2024/01/16 07:30:16;;;;;;;14.45;11.38;;;;;;;;;;5111422;28;20031;-78
2024/01/16 07:32:43;;;;;;;22.55;14.43;;;;;;;;;;5073714;28;20027;-77
2024/01/16 07:35:09;;;;;;;20.75;16.63;;;;;;;;;;5070837;28;20040;-76
2024/01/16 07:37:35;;;;;;;21.65;15.95;;;;;;;;;;5072512;28;20055;-76
2024/01/16 07:40:01;;;;;;;18.25;12.43;;;;;;;;;;5101849;28;20038;-77
2024/01/16 07:42:34;;;;;;;20.17;14.60;;;;;;;;;;5128636;28;20053;-78
2024/01/16 07:45:04;;;;;;;12.30;10.35;;;;;;;;;;5120897;28;20601;-77
2024/01/16 07:47:32;;;;;;;16.00;11.80;;;;;;;;;;5122724;28;20484;-79
2024/01/16 07:49:59;;;;;;;17.05;12.90;;;;;;;;;;5097990;28;20028;-78
2024/01/16 07:52:26;;;;;;;14.80;10.75;;;;;;;;;;5080547;28;20042;-77
2024/01/16 07:54:52;;;;;;;19.80;12.02;;;;;;;;;;5075835;28;20050;-78
2024/01/16 07:57:21;;;;;;;21.08;15.18;;;;;;;;;;5056513;28;20499;-78
2024/01/16 07:59:47;;;;;;;16.73;11.80;;;;;;;;;;5089178;28;20077;-77
2024/01/16 08:02:13;;;;;;;17.67;15.82;;;;;;;;;;5100887;28;20111;-76
2024/01/16 08:04:39;;;;;;;17.90;14.82;;;;;;;;;;5083482;28;20092;-78
2024/01/16 08:07:05;;;;;;;13.00;10.40;;;;;;;;;;5107415;28;20564;-78
2024/01/16 08:09:30;;;;;;;21.83;12.98;;;;;;;;;;5088796;28;20042;-77
2024/01/16 08:11:57;;;;;;;18.05;14.20;;;;;;;;;;5102514;28;20397;-79
2024/01/16 08:14:23;;;;;;;18.65;14.20;;;;;;;;;;5105211;28;20098;-76
2024/01/16 08:16:49;;;;;;;18.45;12.65;;;;;;;;;;5066180;28;20046;-74
2024/01/16 08:19:15;;;;;;;17.10;10.85;;;;;;;;;;5122194;28;20061;-76
2024/01/16 08:21:41;;;;;;;19.13;12.07;;;;;;;;;;5088179;28;20093;-80
2024/01/16 08:24:07;;;;;;;14.75;9.93;;;;;;;;;;5087316;28;20042;-80
2024/01/16 08:26:33;;;;;;;10.80;8.68;;;;;;;;;;5107806;28;20039;-79
2024/01/16 08:28:59;;;;;;;17.30;12.35;;;;;;;;;;5110280;28;20042;-81
2024/01/16 08:31:25;;;;;;;14.07;10.30;;;;;;;;;;5094521;28;20399;-75
2024/01/16 08:33:51;;;;;;;17.35;12.38;;;;;;;;;;5106686;28;20395;-75
2024/01/16 08:36:17;;;;;;;11.63;8.63;;;;;;;;;;5086224;28;20118;-76
2024/01/16 08:38:44;;;;;;;14.30;10.27;;;;;;;;;;5099374;28;20118;-74
2024/01/16 08:41:10;;;;;;;11.38;9.05;;;;;;;;;;5105965;28;20032;-75
2024/01/16 08:43:36;;;;;;;16.27;11.75;;;;;;;;;;5090448;28;20203;-75
2024/01/16 08:46:03;;;;;;;19.38;12.45;;;;;;;;;;5087728;28;20447;-74
2024/01/16 08:48:29;;;;;;;14.77;10.73;;;;;;;;;;5089109;28;20032;-76
2024/01/16 08:50:55;;;;;;;14.07;10.02;;;;;;;;;;5088044;28;20147;-74
2024/01/16 08:53:24;;;;;;;16.33;12.00;;;;;;;;;;5085454;28;20024;-74
2024/01/16 08:55:50;;;;;;;13.05;9.98;;;;;;;;;;5089987;28;20040;-75
2024/01/16 08:58:15;;;;;;;24.20;14.98;;;;;;;;;;5100172;28;20466;-76
2024/01/16 09:00:41;;;;;;;16.42;10.93;;;;;;;;;;5101411;28;21090;-75
2024/01/16 09:03:07;;;;;;;17.48;12.75;;;;;;;;;;5102400;28;20040;-75
2024/01/16 09:05:38;;;;;;;16.13;11.23;;;;;;;;;;5101659;28;20047;-74
2024/01/16 09:08:04;;;;;;;18.23;14.27;;;;;;;;;;5093882;28;20108;-75
2024/01/16 09:10:33;;;;;;;15.85;11.05;;;;;;;;;;5089321;28;20772;-73
2024/01/16 09:12:59;;;;;;;17.17;12.02;;;;;;;;;;5087964;28;20044;-75
2024/01/16 09:15:25;;;;;;;13.18;10.65;;;;;;;;;;5068668;28;20048;-73
2024/01/16 09:17:50;;;;;;;13.52;10.82;;;;;;;;;;5072365;28;20036;-76
2024/01/16 09:20:17;;;;;;;14.90;12.02;;;;;;;;;;5090344;28;20032;-76
2024/01/16 09:22:42;;;;;;;9.27;8.20;;;;;;;;;;5086971;28;20288;-76
2024/01/16 09:25:08;;;;;;;10.68;9.25;;;;;;;;;;5090481;28;20508;-75
2024/01/16 09:27:34;;;;;;;19.08;13.57;;;;;;;;;;5092393;28;20043;-76
2024/01/16 09:30:00;;;;;;;11.32;9.35;;;;;;;;;;5091543;28;20028;-77
2024/01/16 09:32:26;;;;;;;14.57;11.20;;;;;;;;;;5088828;28;20488;-77
2024/01/16 09:34:52;;;;;;;17.30;11.07;;;;;;;;;;5099413;28;20132;-76
2024/01/16 09:37:18;;;;;;;16.92;12.00;;;;;;;;;;5059088;28;20884;-75
2024/01/16 09:39:44;;;;;;;15.05;10.50;;;;;;;;;;5090510;28;20034;-75
2024/01/16 09:42:10;;;;;;;11.10;9.45;;;;;;;;;;5085971;28;20032;-76
2024/01/16 09:44:36;;;;;;;13.95;10.38;;;;;;;;;;5088119;28;20052;-76
2024/01/16 09:47:03;;;;;;;18.45;12.88;;;;;;;;;;5091686;28;20351;-77
2024/01/16 09:49:32;;;;;;;21.30;13.18;;;;;;;;;;5086974;28;20620;-76
2024/01/16 09:52:01;;;;;;;15.30;10.05;;;;;;;;;;5086943;28;20039;-76
2024/01/16 09:54:27;;;;;;;12.98;10.00;;;;;;;;;;5085444;28;20384;-75
2024/01/16 09:56:53;;;;;;;14.60;11.27;;;;;;;;;;5088415;28;20401;-76
2024/01/16 09:59:20;;;;;;;16.05;11.10;;;;;;;;;;5087137;28;20130;-77
2024/01/16 10:01:46;;;;;;;19.10;13.13;;;;;;;;;;5085956;28;20145;-75
2024/01/16 10:04:12;;;;;;;15.93;10.13;;;;;;;;;;5087777;28;20028;-76
2024/01/16 10:06:38;;;;;;;12.88;11.52;;;;;;;;;;5087673;28;20487;-76
2024/01/16 10:09:04;;;;;;;15.95;11.10;;;;;;;;;;5069644;28;20403;-75
2024/01/16 10:11:30;;;;;;;12.18;9.27;;;;;;;;;;5069412;28;20074;-76
2024/01/16 10:13:57;;;;;;;15.95;12.93;;;;;;;;;;5087431;28;20059;-76
2024/01/16 10:16:23;;;;;;;13.13;9.07;;;;;;;;;;5085594;28;20141;-76
2024/01/16 10:18:49;;;;;;;20.27;12.00;;;;;;;;;;5088168;28;20071;-74
2024/01/16 10:21:29;;;;;;;16.23;11.02;;;;;;;;;;5087167;28;20032;-75
2024/01/16 10:23:55;;;;;;;13.35;11.02;;;;;;;;;;5083477;28;20032;-75
2024/01/16 10:26:20;;;;;;;13.52;8.68;;;;;;;;;;5085952;28;20090;-74
2024/01/16 10:28:46;;;;;;;13.77;10.43;;;;;;;;;;5069506;28;20385;-77
2024/01/16 10:31:15;;;;;;;10.05;8.85;;;;;;;;;;5086845;28;20101;-76
2024/01/16 10:33:41;;;;;;;15.57;11.23;;;;;;;;;;5086559;28;20039;-76
2024/01/16 10:36:10;;;;;;;15.90;12.13;;;;;;;;;;5087447;28;20032;-75
2024/01/16 10:38:38;;;;;;;16.55;12.05;;;;;;;;;;5077551;28;20024;-76
2024/01/16 10:41:25;;;;;;;8.75;7.40;;;;;;;;;;5054198;28;20483;-76
2024/01/16 10:44:09;;;;;;;14.20;10.23;;;;;;;;;;5087211;28;20028;-75
2024/01/16 10:46:36;;;;;;;14.70;11.18;;;;;;;;;;5106723;28;20027;-75
2024/01/16 10:49:03;;;;;;;11.90;10.13;;;;;;;;;;5088879;28;20031;-77
2024/01/16 10:51:29;;;;;;;14.25;10.35;;;;;;;;;;5088654;28;20032;-76
2024/01/16 10:53:59;;;;;;;13.85;11.90;;;;;;;;;;5106476;28;20032;-76
2024/01/16 10:56:26;;;;;;;15.63;11.40;;;;;;;;;;5106981;28;20136;-76
2024/01/16 10:58:58;;;;;;;18.20;11.38;;;;;;;;;;5089252;28;20514;-77
2024/01/16 11:01:24;;;;;;;14.00;12.07;;;;;;;;;;5071928;28;20031;-76
2024/01/16 11:03:50;;;;;;;20.15;13.88;;;;;;;;;;5088059;28;20444;-75
2024/01/16 11:06:17;;;;;;;14.13;11.18;;;;;;;;;;5087687;28;20035;-77
2024/01/16 11:08:48;;;;;;;12.82;10.50;;;;;;;;;;5106978;28;20039;-77
2024/01/16 11:11:15;;;;;;;16.65;10.90;;;;;;;;;;5083962;28;20395;-76
2024/01/16 11:13:44;;;;;;;12.40;8.68;;;;;;;;;;5107084;28;20530;-75
2024/01/16 11:16:13;;;;;;;18.77;13.73;;;;;;;;;;5107057;28;20071;-76
2024/01/16 11:18:38;;;;;;;18.60;12.85;;;;;;;;;;5106804;28;20496;-76
2024/01/16 11:21:10;;;;;;;17.33;12.52;;;;;;;;;;5107380;28;20042;-76
2024/01/16 11:23:36;;;;;;;10.60;8.98;;;;;;;;;;5090120;28;20028;-77
2024/01/16 11:26:21;;;;;;;14.60;10.32;;;;;;;;;;5090268;28;20043;-77
2024/01/16 11:28:47;;;;;;;16.38;11.70;;;;;;;;;;5117184;28;20157;-76
2024/01/16 11:31:29;;;;;;;15.88;12.88;;;;;;;;;;5097702;28;20036;-78
2024/01/16 11:34:13;;;;;;;11.73;10.07;;;;;;;;;;5110338;28;20507;-76
2024/01/16 11:36:53;;;;;;;16.08;11.82;;;;;;;;;;5088597;28;20181;-79
2024/01/16 11:39:24;;;;;;;13.65;9.50;;;;;;;;;;5073254;28;20027;-78
2024/01/16 11:41:51;;;;;;;15.25;10.23;;;;;;;;;;5106898;28;20040;-79
2024/01/16 11:44:37;;;;;;;10.13;8.45;;;;;;;;;;5108196;28;20047;-80
2024/01/16 11:47:03;;;;;;;15.05;10.95;;;;;;;;;;5105932;28;20028;-78
2024/01/16 11:49:32;;;;;;;7.40;6.70;;;;;;;;;;5105159;28;20084;-79
2024/01/16 11:51:58;;;;;;;11.38;9.55;;;;;;;;;;5107211;28;20024;-79
2024/01/16 11:54:24;;;;;;;15.20;10.63;;;;;;;;;;5106679;28;20036;-77
2024/01/16 11:57:09;;;;;;;14.77;9.95;;;;;;;;;;5087389;28;20034;-77
2024/01/16 11:59:55;;;;;;;13.10;9.43;;;;;;;;;;5094098;28;20712;-79
2024/01/16 12:02:29;;;;;;;12.35;10.48;;;;;;;;;;5104163;28;20038;-79
2024/01/16 12:04:56;;;;;;;19.83;11.85;;;;;;;;;;5108291;28;20074;-79
2024/01/16 12:07:22;;;;;;;14.15;11.27;;;;;;;;;;5111364;28;20031;-78
2024/01/16 12:09:48;;;;;;;9.80;8.88;;;;;;;;;;5093803;28;20043;-79
2024/01/16 12:12:15;;;;;;;12.95;11.60;;;;;;;;;;5109571;28;20392;-76
2024/01/16 12:14:41;;;;;;;18.52;13.40;;;;;;;;;;5107953;28;20032;-77
2024/01/16 12:17:10;;;;;;;16.90;11.50;;;;;;;;;;5089268;28;20488;-78
2024/01/16 12:19:39;;;;;;;11.18;9.95;;;;;;;;;;5109735;28;20096;-76
2024/01/16 12:22:08;;;;;;;11.57;9.38;;;;;;;;;;5109788;28;20913;-76
2024/01/16 12:24:33;;;;;;;21.25;11.60;;;;;;;;;;5091496;28;20050;-77
2024/01/16 12:26:59;;;;;;;15.18;12.07;;;;;;;;;;5106476;27;20027;-76
2024/01/16 12:29:25;;;;;;;15.85;10.90;;;;;;;;;;5066435;28;20043;-77
2024/01/16 12:31:53;;;;;;;16.77;12.18;;;;;;;;;;5109100;28;20031;-76
2024/01/16 12:34:22;;;;;;;15.85;12.95;;;;;;;;;;5086570;28;20020;-76
2024/01/16 12:36:48;;;;;;;16.48;12.85;;;;;;;;;;5075069;28;20039;-76
2024/01/16 12:39:19;;;;;;;14.90;10.82;;;;;;;;;;5079694;28;20027;-77
2024/01/16 12:41:45;;;;;;;;;;;;;;;;;;5091198;28;20039;-76
2024/01/16 12:44:11;;;;;;;8.75;7.70;;;;;;;;;;5107529;28;19926;-76
2024/01/16 12:46:37;;;;;;;13.65;10.98;;;;;;;;;;5103932;28;20100;-75
2024/01/16 12:49:03;;;;;;;19.70;13.73;;;;;;;;;;5107705;28;20503;-76
2024/01/16 12:51:29;;;;;;;13.23;10.57;;;;;;;;;;5092164;28;20039;-76
2024/01/16 12:54:09;;;;;;;14.85;11.23;;;;;;;;;;5083603;28;20035;-76
2024/01/16 12:56:35;;;;;;;14.43;11.73;;;;;;;;;;5084271;28;20398;-75
2024/01/16 12:59:08;;;;;;;17.85;12.70;;;;;;;;;;5085566;28;20348;-76
2024/01/16 13:01:34;;;;;;;17.60;11.70;;;;;;;;;;5083713;28;20024;-77
2024/01/16 13:04:03;;;;;;;13.07;10.85;;;;;;;;;;5089418;28;20088;-76
2024/01/16 13:06:29;;;;;;;16.75;12.70;;;;;;;;;;5089147;28;20040;-77
2024/01/16 13:09:05;;;;;;;18.70;12.98;;;;;;;;;;5107929;28;20031;-76
2024/01/16 13:11:31;;;;;;;10.88;9.68;;;;;;;;;;5103228;28;20039;-76
2024/01/16 13:14:03;;;;;;;21.95;14.27;;;;;;;;;;5093096;28;20023;-76
2024/01/16 13:16:29;;;;;;;11.63;8.65;;;;;;;;;;5109151;27;20040;-82
2024/01/16 13:19:02;;;;;;;18.77;11.57;;;;;;;;;;5075624;28;20142;-80
2024/01/16 13:21:28;;;;;;;19.83;13.32;;;;;;;;;;5121371;28;20484;-78
2024/01/16 13:23:54;;;;;;;15.63;11.48;;;;;;;;;;5122855;28;20123;-79
2024/01/16 13:26:20;;;;;;;20.33;13.88;;;;;;;;;;5116353;28;20065;-79
2024/01/16 13:28:47;;;;;;;20.15;13.90;;;;;;;;;;5090235;28;20499;-79
2024/01/16 13:31:13;;;;;;;20.58;12.43;;;;;;;;;;5109359;28;20052;-80
2024/01/16 13:33:39;;;;;;;26.48;16.23;;;;;;;;;;5113809;28;20074;-79
2024/01/16 13:36:05;;;;;;;19.33;13.70;;;;;;;;;;5090503;28;20122;-80
2024/01/16 13:38:31;;;;;;;18.98;12.93;;;;;;;;;;5057605;28;20038;-78
2024/01/16 13:40:57;;;;;;;22.17;14.50;;;;;;;;;;5110476;28;20141;-82
2024/01/16 13:43:22;;;;;;;20.50;13.20;;;;;;;;;;5116217;28;20024;-79
2024/01/16 13:45:49;;;;;;;11.00;8.65;;;;;;;;;;5071217;28;20067;-79
2024/01/16 13:48:17;;;;;;;20.05;13.20;;;;;;;;;;5089902;28;20032;-78
2024/01/16 13:50:42;;;;;;;21.42;13.38;;;;;;;;;;5072019;28;20093;-79
2024/01/16 13:53:12;;;;;;;19.10;12.65;;;;;;;;;;5113222;28;20007;-82
2024/01/16 13:55:39;;;;;;;22.33;12.70;;;;;;;;;;5108962;28;20034;-79
2024/01/16 13:58:05;;;;;;;15.55;11.80;;;;;;;;;;5106397;27;20067;-77
2024/01/16 14:00:31;;;;;;;15.07;10.93;;;;;;;;;;5088407;28;20070;-79
2024/01/16 14:02:57;;;;;;;19.77;14.48;;;;;;;;;;5091396;28;20067;-80
2024/01/16 14:05:23;;;;;;;21.30;13.73;;;;;;;;;;5106344;28;20046;-77
2024/01/16 14:07:52;;;;;;;20.15;13.05;;;;;;;;;;5105249;28;20027;-74
2024/01/16 14:10:19;;;;;;;16.73;11.75;;;;;;;;;;5104913;28;20134;-76
2024/01/16 14:12:46;;;;;;;21.67;13.23;;;;;;;;;;5105426;28;20417;-77
2024/01/16 14:15:45;;;;;;;21.60;14.07;;;;;;;;;;5086869;28;20044;-78
2024/01/16 14:18:04;;;;;;;19.67;14.55;;;;;;;;;;5099737;28;20092;-78
2024/01/16 14:20:30;;;;;;;20.60;13.77;;;;;;;;;;5087914;28;20039;-77